Ferrum, Virginia
Current Conditions -  °F | °C
As of 8:35 AM on Thursday 23 Oct 2014 (Local Time) from KMTV Reporting Station
Clear Clear  
Wind Chill: 51°   Ceiling: Unl
Heat Index: 51°   Visibility: 10mi
Dew Point: 39°   Wind: 8mph
Humidity: 64%   Direction: 340°NNW
Pressure: 30.08"   Gusts: NA
Location:  36.92°N, 80.01°W
Report Text: KMTV 231235Z AUTO 34007KT 10SM CLR 11/04 A3008 RMK AO2 T01050040
Loading
Personal Weather Stations






























Interactive Weather Map
Tropical Storm Tracking
New forecast layout! Learn more

10-Day Weather Forecast

Advertisements
Track Severe Weather on mobile